Time;durP1;ratioP1;P1;durP2;ratioP2;P2;SDS_P1;SDS_P2;PMS_P1;PMS_P2;Temp;Humidity;BMP_temperature;BMP_pressure;BME280_temperature;BME280_humidity;BME280_pressure;Samples;Min_cycle;Max_cycle;Signal;HPM_P1;HPM_P2
2023/10/13 00:02:07;;;;;;;2.80;1.70;;;20.80;99.90;;;20.84;63.43;100951.94;4993342;28;98103;-47
2023/10/13 00:04:37;;;;;;;6.80;2.97;;;20.80;99.90;;;20.85;63.30;100961.69;4983922;28;105541;-47
2023/10/13 00:07:04;;;;;;;2.20;1.53;;;20.80;99.90;;;20.83;62.51;100948.41;4993260;28;97239;-47
2023/10/13 00:09:37;;;;;;;3.70;2.30;;;20.80;99.90;;;20.87;66.36;100949.88;4990061;28;97000;-51
2023/10/13 00:12:05;;;;;;;4.13;2.73;;;20.80;99.90;;;20.84;66.58;100942.06;4985202;28;102859;-47
2023/10/13 00:14:33;;;;;;;2.37;1.77;;;20.80;99.90;;;20.81;64.48;100934.25;4987787;28;97861;-52
2023/10/13 00:17:04;;;;;;;1.63;1.37;;;20.80;99.90;;;20.79;63.48;100941.53;4987490;28;97307;-51
2023/10/13 00:19:45;;;;;;;2.47;1.93;;;20.70;99.90;;;20.79;67.65;100946.91;4990943;28;97178;-47
2023/10/13 00:22:15;;;;;;;3.53;2.33;;;20.70;99.90;;;20.73;67.83;100937.50;4983939;28;102535;-48
2023/10/13 00:24:45;;;;;;;3.00;1.40;;;20.60;99.90;;;20.70;63.17;100932.38;4985279;28;97487;-50
2023/10/13 00:30:23;;;;;;;1.83;1.20;;;20.60;99.90;;;20.68;63.23;100917.34;4993026;28;97459;-51
2023/10/13 00:32:55;;;;;;;3.13;1.50;;;20.60;99.90;;;20.66;63.20;100911.25;4987630;28;100185;-49
2023/10/13 00:35:37;;;;;;;2.37;1.57;;;20.60;99.90;;;20.68;62.84;100912.84;4972129;28;97906;-47
2023/10/13 00:38:12;;;;;;;1.73;1.60;;;20.70;99.90;;;20.70;63.20;100915.44;4984469;28;96721;-48
2023/10/13 00:40:42;;;;;;;9.00;1.93;;;20.70;99.90;;;20.71;63.57;100906.44;4987954;28;97255;-49
2023/10/13 00:45:55;;;;;;;4.27;2.33;;;20.70;99.90;;;20.72;67.16;100905.44;4987597;28;97178;-47
2023/10/13 00:48:29;;;;;;;4.37;2.33;;;20.70;99.90;;;20.70;65.27;100902.03;4977495;28;97087;-48
2023/10/13 00:51:08;;;;;;;4.47;2.57;;;20.60;99.90;;;20.70;65.10;100902.03;4983021;28;98282;-51
2023/10/13 00:53:40;;;;;;;2.50;1.63;;;20.60;99.90;;;20.66;63.60;100897.84;4970880;28;100867;-49
2023/10/13 00:56:07;;;;;;;3.53;2.60;;;20.60;99.90;;;20.66;64.01;100889.81;4971401;28;97154;-50
2023/10/13 00:58:40;;;;;;;4.87;2.60;;;20.60;99.90;;;20.66;68.30;100893.34;4986933;28;97104;-53
2023/10/13 01:01:18;;;;;;;3.13;2.20;;;20.60;99.90;;;20.64;68.00;100884.56;4984432;28;97303;-47
2023/10/13 01:03:58;;;;;;;1.67;1.40;;;20.50;99.90;;;20.61;64.29;100878.59;4991720;28;98708;-47
2023/10/13 01:06:25;;;;;;;6.40;2.63;;;20.50;99.90;;;20.61;67.94;100883.94;4992418;28;98200;-50
2023/10/13 01:09:17;;;;;;;1.80;1.67;;;20.50;99.90;;;20.59;64.19;100877.84;4970041;28;97090;-49
2023/10/13 01:11:52;;;;;;;4.13;1.80;;;20.50;99.90;;;20.60;65.69;100871.50;4988807;28;97516;-48
2023/10/13 01:14:23;;;;;;;4.73;2.10;;;20.50;99.90;;;20.58;64.39;100871.63;4991357;28;109267;-48
2023/10/13 01:16:52;;;;;;;2.10;1.43;;;20.40;99.90;;;20.57;64.27;100867.25;4980319;28;98169;-50
2023/10/13 01:19:27;;;;;;;3.07;1.90;;;20.50;99.90;;;20.57;64.58;100858.34;4993352;28;96926;-50
2023/10/13 01:22:04;;;;;;;3.70;2.37;;;20.50;99.90;;;20.57;67.66;100867.25;4992476;28;96897;-48
2023/10/13 01:24:37;;;;;;;3.93;2.40;;;20.50;99.90;;;20.58;69.66;100862.75;4993062;28;101799;-49
2023/10/13 01:27:25;;;;;;;5.10;3.10;;;20.50;99.90;;;20.57;67.25;100851.16;4989649;28;101225;-58
2023/10/13 01:29:58;;;;;;;5.50;2.97;;;20.50;99.90;;;20.56;68.60;100848.59;4988710;28;97199;-47
2023/10/13 01:32:24;;;;;;;5.43;3.07;;;20.50;99.90;;;20.54;67.22;100837.13;4990289;28;97502;-47
2023/10/13 01:34:55;;;;;;;2.63;1.57;;;20.40;99.90;;;20.55;64.25;100842.38;4989282;28;99812;-51
2023/10/13 01:37:21;;;;;;;3.80;2.80;;;20.40;99.90;;;20.56;66.16;100832.53;4988483;28;96892;-47
2023/10/13 01:39:49;;;;;;;4.97;2.70;;;20.50;99.90;;;20.58;67.53;100833.25;4988050;28;97222;-47
2023/10/13 01:42:21;;;;;;;3.97;2.67;;;20.50;99.90;;;20.58;68.60;100835.94;4993569;28;96993;-47
2023/10/13 01:44:48;;;;;;;4.23;3.03;;;20.50;99.90;;;20.59;69.01;100837.66;4989594;28;96915;-50
2023/10/13 01:47:15;;;;;;;5.33;2.90;;;20.50;99.90;;;20.57;67.64;100834.22;4985050;28;97262;-47
2023/10/13 01:49:47;;;;;;;3.30;1.57;;;20.50;99.90;;;20.56;65.72;100830.69;4985828;28;97246;-49
2023/10/13 01:52:16;;;;;;;3.77;2.10;;;20.50;99.90;;;20.56;65.04;100821.81;4992451;28;97484;-47
2023/10/13 01:54:48;;;;;;;1.83;1.23;;;20.50;99.90;;;20.57;63.86;100823.50;4987297;28;97483;-49
2023/10/13 01:57:17;;;;;;;5.77;3.97;;;20.50;99.90;;;20.59;68.63;100816.22;4987686;28;96993;-47
2023/10/13 01:59:45;;;;;;;3.10;1.90;;;20.50;99.90;;;20.57;64.30;100813.66;4990948;28;98482;-47
2023/10/13 02:02:15;;;;;;;4.07;2.30;;;20.50;99.90;;;20.58;65.10;100814.50;4983057;28;96747;-49
2023/10/13 02:05:00;;;;;;;2.20;1.80;;;20.50;99.90;;;20.60;65.37;100807.19;4990670;28;97401;-48
2023/10/13 02:07:34;;;;;;;2.40;2.10;;;20.50;99.90;;;20.57;63.96;100807.44;4991792;28;98000;-51
2023/10/13 02:10:05;;;;;;;5.33;3.03;;;20.50;99.90;;;20.59;68.35;100797.44;4992718;28;96932;-48
2023/10/13 02:12:37;;;;;;;4.43;2.97;;;20.50;99.90;;;20.59;67.87;100794.78;4987578;28;98483;-50
2023/10/13 02:15:04;;;;;;;1.83;1.50;;;20.50;99.90;;;20.58;66.16;100798.44;4989503;28;101528;-57
2023/10/13 02:17:40;;;;;;;2.80;2.27;;;20.50;99.90;;;20.57;67.30;100791.34;4997216;28;99644;-49
2023/10/13 02:20:14;;;;;;;2.03;1.50;;;20.50;99.90;;;20.56;64.08;100784.28;4986595;28;97525;-49
2023/10/13 02:22:48;;;;;;;2.07;1.33;;;20.50;99.90;;;20.57;65.26;100786.00;4989695;28;97241;-48
2023/10/13 02:28:21;;;;;;;2.53;2.13;;;20.50;99.90;;;20.58;65.50;100782.34;4954980;22;102584;-72
2023/10/13 02:30:50;;;;;;;1.80;1.60;;;20.50;99.90;;;20.59;64.50;100771.50;4984773;22;99429;-49
2023/10/13 02:33:29;;;;;;;3.60;2.50;;;20.50;99.90;;;20.62;67.85;100762.38;4966687;28;97604;-48
2023/10/13 02:35:56;;;;;;;3.83;2.43;;;20.50;99.90;;;20.58;64.64;100755.56;4959019;28;97482;-48
2023/10/13 02:41:11;;;;;;;2.40;2.13;;;20.50;99.90;;;20.59;65.10;100751.91;4950075;28;97529;-47
2023/10/13 02:43:37;;;;;;;3.67;2.50;;;20.50;99.90;;;20.59;67.80;100742.03;4950669;28;98690;-48
2023/10/13 02:46:04;;;;;;;2.13;1.80;;;20.50;99.90;;;20.57;66.69;100740.44;4948333;28;96825;-51
2023/10/13 02:48:39;;;;;;;7.20;2.70;;;20.50;99.90;;;20.58;66.07;100739.47;4952141;28;97374;-49
2023/10/13 02:51:15;;;;;;;4.77;3.03;;;20.50;99.90;;;20.54;67.63;100737.97;4950868;28;97279;-47
2023/10/13 02:53:52;;;;;;;2.20;1.90;;;20.40;99.90;;;20.53;65.40;100736.25;4949152;28;97072;-49
2023/10/13 02:56:22;;;;;;;1.37;1.20;;;20.40;99.90;;;20.49;65.80;100733.81;4950099;28;97117;-47
2023/10/13 02:59:04;;;;;;;3.13;2.47;;;20.40;99.90;;;20.49;65.91;100736.50;4949624;28;97515;-47
2023/10/13 03:01:33;;;;;;;2.57;2.07;;;20.40;99.90;;;20.49;68.56;100731.16;4957489;28;97091;-49
2023/10/13 03:04:02;;;;;;;3.90;2.40;;;20.40;99.90;;;20.49;68.00;100733.81;4952081;28;97580;-49
2023/10/13 03:06:32;;;;;;;4.70;3.07;;;20.30;99.90;;;20.49;68.70;100731.16;4951024;28;101700;-48
2023/10/13 03:09:19;;;;;;;2.43;2.07;;;20.30;99.90;;;20.45;66.41;100718.09;4956373;28;97018;-47
2023/10/13 03:11:49;;;;;;;2.80;1.90;;;20.40;99.90;;;20.48;65.65;100723.22;4951859;28;97018;-49
2023/10/13 03:14:31;;;;;;;2.53;2.13;;;20.40;99.90;;;20.49;66.37;100715.06;4957633;28;96893;-47
2023/10/13 03:17:05;;;;;;;4.60;3.20;;;20.40;99.90;;;20.49;67.91;100709.72;4935396;28;98171;-50
2023/10/13 03:19:36;;;;;;;4.80;2.37;;;20.40;99.90;;;20.52;68.81;100710.44;4954379;28;101308;-50
2023/10/13 03:22:11;;;;;;;2.77;2.17;;;20.40;99.90;;;20.49;65.38;100703.50;4950494;28;97495;-47
2023/10/13 03:24:44;;;;;;;3.37;2.13;;;20.40;99.90;;;20.51;67.58;100704.22;4948771;28;97297;-48
2023/10/13 03:27:16;;;;;;;7.47;2.90;;;20.40;99.90;;;20.49;69.78;100701.69;4950992;28;98446;-50
2023/10/13 03:29:44;;;;;;;3.50;2.37;;;20.40;99.90;;;20.50;68.59;100694.50;4951174;28;97711;-49
2023/10/13 03:32:11;;;;;;;2.07;1.60;;;20.40;99.90;;;20.49;64.74;100682.91;4950177;28;97109;-47
2023/10/13 03:43:04;;;;;;;2.57;1.70;;;20.50;99.90;;;20.52;66.26;100670.25;4949261;28;96785;-48
2023/10/13 03:45:46;;;;;;;3.23;2.33;;;20.50;99.90;;;20.50;64.69;100662.34;4951497;28;97182;-48
2023/10/13 03:53:27;;;;;;;5.80;3.33;;;20.50;99.90;;;20.53;66.90;100655.88;4948665;28;97189;-50
2023/10/13 03:56:07;;;;;;;3.43;2.30;;;20.50;99.90;;;20.56;65.50;100650.31;4935024;28;96989;-51
2023/10/13 03:58:45;;;;;;;2.97;2.17;;;20.50;99.90;;;20.56;67.30;100650.31;4948268;28;102957;-53
2023/10/13 04:01:16;;;;;;;3.40;2.00;;;20.50;99.90;;;20.57;66.20;100644.84;4949007;28;97161;-48
2023/10/13 04:04:04;;;;;;;9.83;2.87;;;20.50;99.90;;;20.60;68.36;100643.75;4933599;28;97227;-47
2023/10/13 04:17:27;;;;;;;5.17;3.00;;;20.50;99.90;;;20.55;66.87;100632.53;4950157;28;97430;-52
2023/10/13 04:33:52;;;;;;;4.07;2.20;;;20.50;99.90;;;20.56;68.47;100619.00;4948633;28;97507;-52
2023/10/13 04:38:57;;;;;;;9.03;4.03;;;20.50;99.90;;;20.57;69.77;100614.50;4953831;28;99268;-47
2023/10/13 04:41:57;;;;;;;2.30;1.73;;;20.50;99.90;;;20.54;64.24;100604.00;4953917;28;97719;-47
2023/10/13 04:49:49;;;;;;;2.80;1.93;;;20.50;99.90;;;20.58;65.60;100592.09;4959564;28;96898;-47
2023/10/13 04:55:32;;;;;;;3.17;2.00;;;20.50;99.90;;;20.58;64.28;100581.38;4923988;28;99873;-48
2023/10/13 04:58:14;;;;;;;5.60;3.10;;;20.50;99.90;;;20.60;68.86;100582.09;4946994;28;97188;-47
2023/10/13 05:00:56;;;;;;;7.37;3.33;;;20.50;99.90;;;20.61;69.24;100575.78;4951229;28;97182;-48
2023/10/13 05:44:37;;;;;;;2.50;2.10;;;20.50;99.90;;;20.60;66.35;100579.44;4949098;28;98635;-50
2023/10/13 06:30:58;;;;;;;2.27;1.83;;;20.70;99.90;;;20.69;63.64;100570.66;4941661;28;97079;-50
2023/10/13 06:33:28;;;;;;;2.93;1.93;;;20.70;99.90;;;20.73;63.96;100566.75;4939708;28;97418;-47
2023/10/13 06:35:58;;;;;;;2.20;1.87;;;20.80;99.90;;;20.73;63.54;100569.44;4943696;28;97234;-51
2023/10/13 06:38:24;;;;;;;3.43;2.17;;;20.80;99.90;;;20.71;63.32;100558.00;4949010;28;100335;-48
2023/10/13 06:40:52;;;;;;;2.90;1.90;;;20.80;99.90;;;20.71;63.50;100548.13;4951390;28;98003;-48
2023/10/13 06:43:21;;;;;;;2.47;1.70;;;20.80;99.90;;;20.71;63.50;100547.28;4951992;28;97815;-47
2023/10/13 06:46:00;;;;;;;2.13;1.93;;;20.80;99.90;;;20.71;63.63;100544.59;4952145;28;96839;-49
2023/10/13 06:48:27;;;;;;;3.30;1.97;;;20.80;99.90;;;20.71;63.53;100547.28;4949941;28;97320;-51
2023/10/13 06:50:55;;;;;;;2.53;1.97;;;20.80;99.90;;;20.68;63.59;100547.50;4950546;28;99005;-51
2023/10/13 06:53:22;;;;;;;2.03;1.70;;;20.80;99.90;;;20.69;63.83;100525.13;4950123;28;97481;-47
2023/10/13 06:55:52;;;;;;;2.73;1.97;;;20.80;99.90;;;20.67;63.83;100519.00;4951957;28;97092;-47
2023/10/13 06:58:23;;;;;;;3.83;2.03;;;20.70;99.90;;;20.62;63.96;100510.47;4950947;28;97356;-49
2023/10/13 07:00:53;;;;;;;2.87;1.57;;;20.70;99.90;;;20.63;64.05;100501.47;4947613;28;97328;-49
2023/10/13 07:03:25;;;;;;;2.73;1.93;;;20.70;99.90;;;20.62;64.23;100494.41;4948688;28;97396;-52
2023/10/13 07:05:52;;;;;;;2.13;1.80;;;20.70;99.90;;;20.62;64.58;100478.31;4950413;28;101260;-51
2023/10/13 07:08:20;;;;;;;4.10;1.97;;;20.70;99.90;;;20.66;64.64;100493.19;4947200;28;97747;-53
2023/10/13 07:11:02;;;;;;;2.33;1.87;;;20.70;99.90;;;20.67;64.21;100506.44;4953881;28;97661;-52
2023/10/13 07:13:29;;;;;;;5.17;1.93;;;20.80;99.90;;;20.61;64.57;100504.28;4949009;28;97231;-51
2023/10/13 07:16:00;;;;;;;2.40;1.90;;;20.70;99.90;;;20.65;64.37;100510.22;4953147;28;97785;-54
2023/10/13 07:18:26;;;;;;;3.63;1.63;;;20.70;99.90;;;20.68;64.54;100509.97;4953636;28;98847;-51
2023/10/13 07:20:57;;;;;;;2.43;2.20;;;20.80;99.90;;;20.70;64.29;100500.00;4950314;28;98869;-49
2023/10/13 07:23:24;;;;;;;3.20;2.53;;;20.80;99.90;;;20.72;64.65;100496.22;4949997;28;98853;-47
2023/10/13 07:25:57;;;;;;;3.13;1.90;;;20.80;99.90;;;20.72;65.47;100500.75;4941281;28;96846;-51
2023/10/13 07:28:23;;;;;;;3.70;2.20;;;20.80;99.90;;;20.74;67.33;100504.16;4928662;28;98025;-52
2023/10/13 07:30:54;;;;;;;2.90;1.93;;;20.80;99.90;;;20.72;64.50;100503.41;4926537;28;114017;-50
2023/10/13 07:33:20;;;;;;;2.90;2.23;;;20.80;99.90;;;20.72;64.99;100508.78;4927137;28;97715;-49
2023/10/13 07:35:50;;;;;;;4.10;2.00;;;20.80;99.90;;;20.71;64.37;100496.34;4921717;28;97588;-53
2023/10/13 07:38:21;;;;;;;2.03;1.70;;;20.80;99.90;;;20.74;64.38;100491.59;4909757;28;97471;-47
2023/10/13 07:41:07;;;;;;;3.10;2.00;;;20.80;99.90;;;20.72;64.33;100490.03;4927735;28;98567;-50
2023/10/13 07:43:33;;;;;;;3.77;2.43;;;20.80;99.90;;;20.80;65.60;100492.91;4928276;28;99951;-52
2023/10/13 07:45:59;;;;;;;5.40;1.97;;;20.80;99.90;;;20.76;64.80;100492.31;4928068;28;97750;-48
2023/10/13 07:48:25;;;;;;;2.73;2.07;;;20.80;99.90;;;20.75;65.70;100495.13;4926082;28;97019;-53
2023/10/13 07:51:10;;;;;;;4.17;2.33;;;20.80;99.90;;;20.82;69.54;100490.09;4924632;28;97951;-52
2023/10/13 07:53:40;;;;;;;16.07;3.90;;;20.80;99.90;;;20.82;65.82;100492.78;4928834;28;97262;-50
2023/10/13 07:56:11;;;;;;;6.27;2.90;;;20.80;99.90;;;20.84;69.32;100486.34;4932068;28;105119;-53
2023/10/13 07:59:00;;;;;;;3.30;1.80;;;20.80;99.90;;;20.75;64.40;100489.75;4925606;28;97217;-50
2023/10/13 08:01:26;;;;;;;2.90;2.13;;;20.80;99.90;;;20.78;64.48;100478.78;4926160;28;99060;-48
2023/10/13 08:04:11;;;;;;;4.30;1.83;;;20.80;99.90;;;20.73;64.73;100476.50;4926717;28;97394;-51
2023/10/13 08:06:40;;;;;;;5.00;2.67;;;20.80;99.90;;;20.76;64.42;100476.22;4919843;28;99930;-49
2023/10/13 08:09:08;;;;;;;2.30;1.80;;;20.80;99.90;;;20.75;63.85;100471.00;4925076;28;99276;-55
2023/10/13 08:11:35;;;;;;;2.53;1.60;;;20.80;99.90;;;20.77;63.78;100463.69;4926869;28;105252;-52
2023/10/13 08:14:39;;;;;;;2.33;1.47;;;20.80;99.90;;;20.74;64.20;100455.91;4924723;28;103006;-52
2023/10/13 08:16:59;;;;;;;3.57;2.20;;;20.80;99.90;;;20.69;63.99;100464.31;4914757;28;97520;-51
2023/10/13 08:19:31;;;;;;;3.07;1.87;;;20.80;99.90;;;20.71;64.36;100458.84;4927441;28;97103;-49
2023/10/13 08:21:59;;;;;;;3.17;2.13;;;20.80;99.90;;;20.64;64.56;100449.56;4920989;28;97641;-52
2023/10/13 08:30:21;;;;;;;3.30;1.80;;;20.70;99.90;;;20.67;64.62;100449.31;4922727;28;97714;-50
2023/10/13 08:48:13;;;;;;;2.87;1.90;;;20.90;99.90;;;20.82;64.21;100458.78;4885843;28;97172;-54
2023/10/13 08:50:52;;;;;;;9.13;2.53;;;20.90;99.90;;;20.86;65.25;100454.91;4922557;28;97489;-52
2023/10/13 08:53:45;;;;;;;3.67;1.67;;;20.90;99.90;;;20.86;64.25;100449.53;4920896;28;98605;-52
2023/10/13 08:56:34;;;;;;;3.23;1.73;;;20.90;99.90;;;20.83;64.09;100448.91;4918965;28;102756;-48
2023/10/13 08:59:05;;;;;;;3.60;2.07;;;20.90;99.90;;;20.82;63.80;100440.03;4920180;28;99522;-51
2023/10/13 09:04:33;;;;;;;6.73;2.70;;;20.90;99.90;;;20.83;64.25;100436.41;4908745;28;101494;-50
2023/10/13 09:18:15;;;;;;;8.10;3.43;;;21.00;99.90;;;21.01;67.10;100415.25;4908236;28;101182;-48
2023/10/13 09:23:44;;;;;;;6.40;3.03;;;21.10;99.90;;;21.06;70.38;100413.03;4930598;28;97944;-53
2023/10/13 09:26:12;;;;;;;3.63;2.80;;;21.10;99.90;;;21.01;69.04;100405.38;4917015;28;101847;-54
2023/10/13 09:28:37;;;;;;;7.20;3.27;;;21.10;99.90;;;21.07;70.75;100404.88;4925439;28;97748;-53
2023/10/13 09:31:09;;;;;;;3.93;2.27;;;21.10;99.90;;;21.08;66.67;100395.84;4932827;28;101951;-51
2023/10/13 09:33:36;;;;;;;5.27;2.83;;;21.10;99.90;;;21.06;66.25;100386.22;4926613;28;97861;-49
2023/10/13 09:36:04;;;;;;;10.53;3.53;;;21.10;99.90;;;21.09;68.74;100392.16;4931327;28;101799;-53
2023/10/13 09:38:34;;;;;;;6.30;3.30;;;21.10;99.90;;;21.14;68.15;100381.09;4925679;28;98014;-48
2023/10/13 09:41:17;;;;;;;4.23;2.63;;;21.20;99.90;;;21.16;66.16;100386.31;4928971;28;97460;-52
2023/10/13 09:43:45;;;;;;;11.80;3.90;;;21.20;99.90;;;21.12;65.93;100380.38;4926853;28;96989;-49
2023/10/13 09:46:19;;;;;;;6.63;2.93;;;21.20;99.90;;;21.20;66.50;100377.03;4927325;28;101194;-52
2023/10/13 09:48:47;;;;;;;4.63;3.03;;;21.20;99.90;;;21.22;68.41;100380.41;4924806;28;98665;-48
2023/10/13 09:51:21;;;;;;;2.73;2.27;;;21.30;99.90;;;21.21;64.96;100373.34;4928015;28;98327;-53
2023/10/13 09:54:01;;;;;;;6.83;3.40;;;21.30;99.90;;;21.23;65.16;100371.38;4917939;28;101145;-48
2023/10/13 09:56:51;;;;;;;4.47;2.77;;;21.30;99.90;;;21.20;65.22;100360.94;4913851;28;98466;-47
2023/10/13 09:59:35;;;;;;;6.83;3.00;;;21.30;99.90;;;21.19;65.02;100349.34;4924224;28;102899;-48
2023/10/13 10:02:09;;;;;;;8.00;2.83;;;21.30;99.90;;;21.22;64.88;100359.81;4910938;28;98189;-51
2023/10/13 10:04:45;;;;;;;4.37;2.97;;;21.30;99.90;;;21.15;64.50;100347.06;4908143;28;97040;-53
2023/10/13 10:07:11;;;;;;;5.37;3.13;;;21.30;99.90;;;21.22;66.71;100348.25;4921210;28;101884;-51
2023/10/13 10:09:43;;;;;;;9.00;3.43;;;21.30;99.90;;;21.24;65.82;100354.31;4925374;28;97389;-58
2023/10/13 10:13:01;;;;;;;10.30;3.57;;;21.30;99.90;;;21.28;66.59;100356.66;4927478;28;98454;-50
2023/10/13 10:15:35;;;;;;;4.93;2.60;;;21.30;99.90;;;21.32;65.26;100365.28;4897555;28;97029;-49
2023/10/13 10:18:03;;;;;;;5.97;3.07;;;21.40;99.90;;;21.32;65.26;100359.94;4925176;28;103584;-52
2023/10/13 10:20:44;;;;;;;10.47;3.30;;;21.40;99.90;;;21.33;66.09;100367.00;4926497;28;97827;-53
2023/10/13 10:23:24;;;;;;;10.43;2.73;;;21.40;99.90;;;21.37;66.43;100358.53;4923164;28;97546;-49
2023/10/13 10:25:51;;;;;;;6.07;3.47;;;21.50;99.90;;;21.42;66.71;100376.09;4933963;28;97060;-50
2023/10/13 10:28:19;;;;;;;5.17;3.03;;;21.50;99.90;;;21.37;63.59;100368.41;4947389;28;97686;-49
2023/10/13 10:30:45;;;;;;;7.07;3.13;;;21.50;99.90;;;21.48;63.60;100370.19;4948796;28;97172;-49
2023/10/13 10:33:13;;;;;;;5.97;3.60;;;21.60;99.90;;;21.53;66.01;100357.22;4952618;28;97392;-48
2023/10/13 10:35:42;;;;;;;8.63;3.27;;;21.70;99.90;;;21.59;63.43;100362.94;4950171;28;97074;-50
2023/10/13 10:38:24;;;;;;;6.47;3.13;;;21.70;99.90;;;21.56;65.78;100367.72;4951566;28;97287;-49
2023/10/13 10:41:04;;;;;;;6.63;2.73;;;21.70;99.90;;;21.47;63.35;100363.97;4950305;28;97341;-49
2023/10/13 10:43:43;;;;;;;10.13;3.43;;;21.60;99.90;;;21.50;63.17;100354.81;4951279;28;97008;-50
2023/10/13 10:46:13;;;;;;;9.57;3.40;;;21.60;99.90;;;21.49;64.78;100350.44;4950259;28;97476;-49
2023/10/13 10:48:42;;;;;;;3.47;2.20;;;21.60;99.90;;;21.46;63.07;100354.22;4949638;28;100532;-47
2023/10/13 10:51:22;;;;;;;3.80;2.73;;;21.60;99.90;;;21.48;64.68;100338.84;4953340;28;97026;-50
2023/10/13 10:53:52;;;;;;;4.37;2.97;;;21.60;99.90;;;21.51;64.05;100327.84;4955389;28;97335;-49
2023/10/13 10:59:04;;;;;;;5.73;3.37;;;21.60;99.90;;;21.59;62.81;100314.63;4949164;28;101626;-47
2023/10/13 11:01:38;;;;;;;7.40;3.10;;;21.70;99.90;;;21.55;63.46;100320.38;4933704;28;97872;-48
2023/10/13 11:04:14;;;;;;;11.40;3.10;;;21.70;99.90;;;21.65;64.22;100313.22;4951166;28;97247;-47
2023/10/13 11:06:55;;;;;;;9.37;3.70;;;21.80;99.90;;;21.81;64.25;100307.38;4948730;28;97429;-48
2023/10/13 11:09:36;;;;;;;10.15;3.25;;;21.90;99.90;;;21.81;63.59;100308.22;4952053;28;99762;-50
2023/10/13 11:12:15;;;;;;;8.53;3.73;;;22.00;99.90;;;21.91;63.74;100302.88;4936888;28;101503;-49
2023/10/13 11:14:47;;;;;;;5.43;3.28;;;22.10;99.90;;;21.86;61.62;100299.78;4945500;28;97083;-51
2023/10/13 11:17:26;;;;;;;9.13;3.83;;;22.10;99.90;;;21.86;62.63;100289.03;4953116;28;97659;-51
2023/10/13 11:19:52;;;;;;;5.95;3.55;;;22.00;99.90;;;21.96;64.20;100292.59;4951837;28;96869;-52
2023/10/13 11:25:09;;;;;;;4.43;3.40;;;22.10;99.90;;;21.95;61.57;100288.19;4953339;28;100218;-47
2023/10/13 11:30:25;;;;;;;5.90;3.22;;;22.10;99.90;;;21.97;61.97;100275.47;4948369;28;100266;-48
2023/10/13 11:33:05;;;;;;;6.38;3.30;;;22.10;99.90;;;21.96;62.80;100279.16;4946647;28;96989;-50
2023/10/13 11:38:26;;;;;;;7.03;4.00;;;22.10;99.90;;;21.96;61.28;100279.16;4946245;28;97423;-48
2023/10/13 11:46:55;;;;;;;9.70;3.30;;;22.00;99.90;;;21.89;62.80;100272.66;4944536;28;97019;-47
2023/10/13 11:49:18;;;;;;;4.47;2.63;;;22.00;99.90;;;21.86;60.76;100262.19;4928550;28;97250;-52
2023/10/13 11:51:49;;;;;;;7.10;3.10;;;22.00;99.90;;;21.82;61.17;100260.75;4924079;28;100015;-48
2023/10/13 11:54:18;;;;;;;10.53;3.70;;;21.90;99.90;;;21.81;61.53;100259.91;4925426;28;103018;-54
2023/10/13 11:56:45;;;;;;;4.47;2.72;;;21.90;99.90;;;21.74;63.50;100252.53;4924423;28;97465;-50
2023/10/13 11:59:17;;;;;;;6.82;3.28;;;21.80;99.90;;;21.72;61.36;100243.78;4923738;28;97147;-50
2023/10/13 12:04:51;;;;;;;9.30;3.00;;;21.90;99.90;;;21.78;61.48;100248.59;4923018;28;101473;-49
2023/10/13 12:07:20;;;;;;;6.13;3.13;;;21.90;99.90;;;21.78;62.01;100243.22;4920589;28;97545;-48
2023/10/13 12:12:21;;;;;;;8.35;3.53;;;21.80;99.90;;;21.79;61.75;100228.81;4925890;28;98161;-53
2023/10/13 12:14:57;;;;;;;6.10;2.95;;;21.90;99.90;;;21.76;61.68;100234.47;4923919;28;98751;-51
2023/10/13 12:17:31;;;;;;;7.13;3.13;;;21.90;99.90;;;21.71;62.49;100239.41;4911108;28;99052;-48
2023/10/13 12:19:59;;;;;;;9.33;3.43;;;21.80;99.90;;;21.77;60.99;100239.69;4920220;28;97097;-51
2023/10/13 12:22:28;;;;;;;6.23;2.63;;;21.90;99.90;;;21.78;61.00;100238.69;4925623;28;98865;-48
2023/10/13 12:24:57;;;;;;;5.57;2.60;;;21.90;99.90;;;21.76;60.74;100234.47;4925069;28;96922;-49
2023/10/13 12:27:23;;;;;;;5.82;3.13;;;21.90;99.90;;;21.76;60.90;100231.78;4903676;28;99558;-49
2023/10/13 12:29:56;;;;;;;7.43;2.87;;;21.90;99.90;;;21.75;61.11;100232.75;4924040;28;97549;-50
2023/10/13 12:32:24;;;;;;;4.35;2.60;;;21.80;99.90;;;21.72;61.13;100219.63;4925120;28;98485;-48
2023/10/13 12:35:16;;;;;;;6.23;2.80;;;21.80;99.90;;;21.75;61.23;100225.56;4924900;28;99041;-47
2023/10/13 12:51:21;;;;;;;8.20;3.45;;;21.80;99.90;;;21.69;61.36;100221.56;4919390;28;97101;-50
2023/10/13 12:53:52;;;;;;;5.03;2.70;;;21.80;99.90;;;21.65;60.91;100216.63;4921900;28;97099;-48
2023/10/13 12:56:25;;;;;;;8.20;3.00;;;21.80;99.90;;;21.59;61.93;100211.81;4927365;28;100565;-51
2023/10/13 12:58:52;;;;;;;6.60;3.30;;;21.70;99.90;;;21.60;61.10;100214.34;4930727;28;99008;-49
2023/10/13 13:01:22;;;;;;;7.43;2.95;;;21.70;99.90;;;21.60;60.96;100206.31;4931060;28;98489;-49
2023/10/13 13:03:49;;;;;;;5.07;3.23;;;21.70;99.90;;;21.59;60.94;100207.28;4926684;28;97370;-49
2023/10/13 13:06:29;;;;;;;4.87;2.53;;;21.70;99.90;;;21.63;60.69;100197.97;4932204;28;97315;-52
2023/10/13 13:09:00;;;;;;;7.27;2.70;;;21.70;99.90;;;21.64;60.62;100196.97;4932608;28;97615;-51
2023/10/13 13:11:28;;;;;;;7.07;2.70;;;21.80;99.90;;;21.74;59.52;100209.59;4930839;28;98339;-51
2023/10/13 13:13:54;;;;;;;4.10;2.73;;;21.80;99.90;;;21.76;59.99;100203.09;4927784;28;98177;-48
2023/10/13 13:16:23;;;;;;;7.82;2.97;;;21.90;99.90;;;21.86;59.28;100203.13;4931044;28;98989;-48
2023/10/13 13:18:56;;;;;;;7.80;2.47;;;22.00;99.90;;;21.89;58.29;100208.22;4933565;28;99686;-49
2023/10/13 13:21:27;;;;;;;5.87;2.60;;;22.00;99.90;;;21.94;58.30;100205.97;4933805;28;98682;-53
2023/10/13 13:23:56;;;;;;;5.57;2.65;;;22.10;99.90;;;21.84;59.39;100199.72;4928320;28;97900;-47
2023/10/13 13:26:25;;;;;;;3.97;2.28;;;22.00;99.90;;;21.80;59.73;100199.13;4931010;28;99076;-52
2023/10/13 13:28:51;;;;;;;8.20;2.75;;;21.90;99.90;;;21.75;58.92;100200.56;4934206;28;97965;-52
2023/10/13 13:31:26;;;;;;;15.63;3.28;;;21.90;99.90;;;21.82;59.23;100199.84;4932233;28;96788;-51
2023/10/13 13:33:53;;;;;;;11.30;2.80;;;22.00;99.90;;;21.86;58.26;100203.13;4932009;28;98951;-49
2023/10/13 13:36:19;;;;;;;4.95;2.97;;;21.90;99.90;;;21.82;59.59;100201.69;4930354;28;97822;-53
2023/10/13 13:38:46;;;;;;;5.10;2.63;;;21.90;99.90;;;21.81;59.41;100194.63;4928406;28;97822;-49
2023/10/13 13:41:16;;;;;;;5.80;2.63;;;21.90;99.90;;;21.82;58.41;100190.94;4931882;28;97373;-49
2023/10/13 13:46:24;;;;;;;6.32;2.90;;;21.90;99.90;;;21.79;59.40;100180.50;4927642;28;97327;-49
2023/10/13 13:48:57;;;;;;;8.80;2.72;;;21.90;99.90;;;21.88;58.65;100177.00;4917981;28;99165;-50
2023/10/13 13:51:27;;;;;;;5.40;2.30;;;22.00;99.90;;;21.81;59.20;100179.34;4927650;28;98037;-48
2023/10/13 13:53:55;;;;;;;6.07;3.05;;;21.90;99.90;;;21.75;59.64;100179.06;4926828;28;97634;-53
2023/10/13 13:56:25;;;;;;;4.03;2.17;;;21.80;99.90;;;21.73;59.28;100186.44;4918833;28;99756;-48
2023/10/13 13:58:51;;;;;;;4.50;2.35;;;21.80;99.90;;;21.72;59.61;100190.09;4930136;28;97532;-49
2023/10/13 14:01:19;;;;;;;5.77;2.60;;;21.80;99.90;;;21.77;58.97;100186.00;4930299;28;97485;-51
2023/10/13 14:03:47;;;;;;;7.13;2.93;;;21.90;99.90;;;21.74;59.29;100188.13;4932818;28;98573;-48
2023/10/13 14:06:20;;;;;;;10.20;2.93;;;21.80;99.90;;;21.69;59.95;100178.63;4924134;28;98651;-53
2023/10/13 14:08:51;;;;;;;5.13;2.90;;;21.80;99.90;;;21.72;58.88;100176.69;4923877;28;97158;-51
2023/10/13 14:14:11;;;;;;;5.75;2.60;;;21.80;99.90;;;21.69;59.42;100169.72;4917165;28;97855;-52
2023/10/13 14:16:44;;;;;;;4.83;2.60;;;21.80;99.90;;;21.70;59.36;100182.19;4925032;28;100165;-49
2023/10/13 14:19:29;;;;;;;6.63;2.53;;;21.80;99.90;;;21.71;59.63;100170.47;4925501;28;98796;-49